Bydgoszcz, Poland
Current Conditions -  °F | °C
As of 11:30 AM on Friday 24 Oct 2014 (Local Time) from EPBY Reporting Station
Clear Clear  
Wind Chill: 34°   Ceiling: Unl
Heat Index: 39°   Visibility: 6mi
Dew Point: 27°   Wind: 7mph
Humidity: 61%   Direction: 130°SE
Pressure: 30.36"   Gusts: NA
Location:  53.12°N, 17.99°E
Report Text: EPBY 240930Z 13006KT CAVOK 04/M03 Q1028
Loading
Personal Weather Stations






























Interactive Weather Map
Tropical Storm Tracking
New forecast layout! Learn more

10-Day Weather Forecast

Advertisements
Track Severe Weather on mobile